Flight Track Log - Related Links

Times and Time Zones

All times are in EDT time to prevent confusion due to time zone crossing. See the AWE1940 flight status page for this flight to view local times or setup timezone preferences in your user account.

Time Position Orientation Groundspeed Altitude Reporting Facility
EDT Latitude Longitude Course Direction KTS MPH feet Rate Location/Type
Sat 10:47:25 PM 35.1950 -80.9356 72° East 159 183 1,500  Level Atlanta Center
Sat 10:48:32 PM 35.1339 -80.9075 159° South 244 281 3,600 2,194 Climbing Atlanta Center
Sat 10:49:39 PM 35.0944 -80.8353 124° Southeast 280 322 6,400 2,909 Climbing Atlanta Center
Sat 10:50:00 PM 35.2000 -80.5667 30° Northeast  Level FlightAware Approximate
Sat 10:50:44 PM 35.1167 -80.7353 75° East 293 337 10,000  Level Atlanta Center
Sat 10:51:00 PM 35.2930 -80.5003 30° Northeast  Level FlightAware Approximate
Sat 10:51:44 PM 35.1644 -80.6494 56° Northeast 304 350 12,900  Level Atlanta Center
Sat 10:52:00 PM 35.3488 -80.4084 72° East  Level FlightAware Approximate
Sat 10:52:44 PM 35.2100 -80.5614 58° Northeast 310 357 14,700  Level Atlanta Center
Sat 10:53:44 PM 35.2617 -80.4700 55° Northeast 315 362 17,900 2,465 Climbing Atlanta Center
Sat 10:56:06 PM 35.3903 -80.2267 57° Northeast 361 415 23,000 1,567 Climbing Washington Center
Sat 10:57:07 PM 35.4408 -80.1019 64° Northeast 393 452 23,200 843 Climbing Washington Center
Sat 10:58:07 PM 35.4767 -79.9817 70° East 400 460 24,700 1,785 Climbing Washington Center
Sat 10:59:08 PM 35.5111 -79.8381 74° East 422 486 26,800 1,339 Climbing Washington Center
Sat 11:00:08 PM 35.5475 -79.6944 73° East 432 497 27,400 1,424 Climbing Washington Center
Sat 11:01:06 PM 35.5833 -79.5533 73° East 432 497 29,600 1,700 Climbing Washington Center
Sat 11:02:08 PM 35.6258 -79.4047 71° East 444 511 30,800 1,800 Climbing Washington Center
Sat 11:03:06 PM 35.6822 -79.2667 63° Northeast 444 511 33,200 2,034 Climbing Washington Center
Sat 11:04:06 PM 35.7408 -79.1286 62° Northeast 450 518 34,800 1,513 Climbing Washington Center
Sat 11:05:05 PM 35.7972 -78.9850 64° Northeast 455 524 36,200 1,091 Climbing Washington Center
Sat 11:06:07 PM 35.8675 -78.8550 56° Northeast 455 524 37,000 390 Climbing Washington Center
Sat 11:07:08 PM 35.9522 -78.7325 49° Northeast 460 529 37,000  Level Washington Center
Sat 11:08:08 PM 36.0325 -78.6075 52° Northeast 460 529 37,000  Level Washington Center
Sat 11:09:08 PM 36.1128 -78.4819 52° Northeast 460 529 37,000  Level Washington Center
Sat 11:10:06 PM 36.1908 -78.3639 51° Northeast 460 529 37,000  Level Washington Center
Sat 11:11:06 PM 36.2708 -78.2431 51° Northeast 454 522 37,000  Level Washington Center
Sat 11:12:06 PM 36.3486 -78.1192 52° Northeast 454 522 37,000  Level Washington Center
Sat 11:13:06 PM 36.4261 -77.9978 52° Northeast 454 522 37,000  Level Washington Center
Sat 11:14:06 PM 36.5036 -77.8736 52° Northeast 454 522 37,000  Level Washington Center
Sat 11:15:06 PM 36.5831 -77.7544 50° Northeast 454 522 37,000  Level Washington Center
Sat 11:16:06 PM 36.6603 -77.6297 52° Northeast 454 522 37,000  Level Washington Center
Sat 11:17:08 PM 36.7394 -77.5072 51° Northeast 454 522 37,000  Level Washington Center
Sat 11:18:06 PM 36.8167 -77.3819 52° Northeast 454 522 37,000  Level Washington Center
Sat 11:19:05 PM 36.8956 -77.2567 52° Northeast 454 522 37,000  Level Washington Center
Sat 11:20:06 PM 36.9744 -77.1311 52° Northeast 454 522 37,000  Level Washington Center
Sat 11:21:06 PM 37.0531 -77.0050 52° Northeast 454 522 37,000  Level Washington Center
Sat 11:22:07 PM 37.1403 -76.8633 52° Northeast 454 522 37,000  Level Washington Center
Sat 11:23:08 PM 37.2189 -76.7342 53° Northeast 459 528 37,000  Level Washington Center
Sat 11:24:06 PM 37.2992 -76.6128 50° Northeast 459 528 37,000  Level Washington Center
Sat 11:25:05 PM 37.3772 -76.4883 52° Northeast 454 522 37,000 -100 Level Washington Center
Sat 11:26:06 PM 37.4533 -76.3661 52° Northeast 454 522 36,800 -585 Descending Washington Center
Sat 11:27:08 PM 37.5414 -76.2572 44° Northeast 443 510 35,800 -900 Descending Washington Center
Sat 11:28:06 PM 37.6442 -76.1636 36° Northeast 437 503 35,000 -407 Descending Washington Center
Sat 11:29:06 PM 37.7489 -76.0778 33° Northeast 447 514 35,000  Level Washington Center
Sat 11:30:06 PM 37.8514 -75.9861 35° Northeast 447 514 35,000  Level Washington Center
Sat 11:31:07 PM 37.9517 -75.9158 29° Northeast 447 514 35,000  Level Washington Center
Sat 11:32:05 PM 38.0583 -75.8397 29° Northeast 447 514 35,000  Level Washington Center
Sat 11:33:06 PM 38.1647 -75.7581 31° Northeast 447 514 35,000  Level Washington Center
Sat 11:34:06 PM 38.2692 -75.6789 31° Northeast 447 514 35,000  Level Washington Center
Sat 11:35:06 PM 38.3878 -75.5997 28° Northeast 442 509 35,000  Level Washington Center
Sat 11:36:08 PM 38.4900 -75.5175 32° Northeast 436 502 35,000 -50 Level Washington Center
Sat 11:37:06 PM 38.5942 -75.4375 31° Northeast 436 502 34,900  Descending Washington Center
Sat 11:38:06 PM 38.7003 -75.3550 31° Northeast 436 502 35,000 49 Climbing Washington Center
Sat 11:39:08 PM 38.8086 -75.2747 30° Northeast 436 502 35,000  Level Washington Center
Sat 11:40:06 PM 38.9147 -75.1942 31° Northeast 436 502 35,000  Level Washington Center
Sat 11:41:06 PM 39.0247 -75.1133 30° Northeast 441 507 35,000  Level Washington Center
Sat 11:42:06 PM 39.1286 -75.0325 31° Northeast 441 507 35,000  Level Washington Center
Sat 11:43:06 PM 39.2347 -74.9511 31° Northeast 441 507 35,000  Level Washington Center
Sat 11:44:06 PM 39.3383 -74.8669 32° Northeast 441 507 35,000  Level Washington Center
Sat 11:46:27 PM 39.5836 -74.6875 29° Northeast 430 495 35,000  Level New York Center
Sat 11:47:25 PM 39.7033 -74.6592 10° North 431 496 35,000  Level New York Center
Sat 11:48:24 PM 39.8233 -74.6253 12° North 436 502 35,000  Level New York Center
Sat 11:50:25 PM 40.0611 -74.5625 11° North 431 496 35,000  Level New York Center
Sat 11:51:25 PM 40.1831 -74.5283 12° North 431 496 35,000  Level New York Center
Sat 11:52:24 PM 40.3008 -74.4939 13° North 436 502 35,000 -403 Level New York Center
Sat 11:53:24 PM 40.4228 -74.4597 12° North 436 502 34,200 -836 Descending New York Center
Sat 11:54:26 PM 40.5425 -74.4278 11° North 431 496 33,300 -942 Descending New York Center
Sat 11:55:25 PM 40.6644 -74.3933 12° North 431 496 32,300 -1,006 Descending New York Center
Sat 11:57:01 PM 40.8608 -74.3447 11° North 441 507 30,700 -1,038 Descending Boston Center
Sat 11:58:01 PM 40.9844 -74.3097 12° North 441 507 29,600 -1,200 Descending Boston Center
Sat 11:59:01 PM 41.1081 -74.2747 12° North 446 513 28,300 -1,250 Descending Boston Center
Sun 12:00:01 AM 41.2336 -74.2425 11° North 453 521 27,100 -1,100 Descending Boston Center
Sun 12:01:01 AM 41.3444 -74.2069 14° North 447 514 26,100 -750 Descending Boston Center
Sun 12:02:01 AM 41.4658 -74.1714 12° North 447 514 25,600 -1,400 Descending Boston Center
Sun 12:03:01 AM 41.5978 -74.1361 11° North 452 520 23,300 -2,300 Descending Boston Center
Sun 12:04:01 AM 41.7128 -74.1031 12° North 432 497 21,000 -2,269 Descending Boston Center
Sun 12:05:00 AM 41.8111 -74.0778 11° North 415 478 18,800 -2,143 Descending Boston Center
Sun 12:06:07 AM 41.9453 -74.0394 12° North 398 458 16,500 -1,922 Descending Boston Center
Sun 12:07:08 AM 42.0497 -74.0086 12° North 380 437 14,700 -1,785 Descending Boston Center
Sun 12:08:08 AM 42.1503 -73.9775 13° North 374 430 12,900 -1,736 Descending Boston Center
Sun 12:09:09 AM 42.2464 -73.9575 North 350 403 11,200 -1,377 Descending Boston Center
Sun 12:10:10 AM 42.3339 -73.9622 358° North 297 342 10,100 -1,388 Descending Boston Center
Sun 12:11:10 AM 42.4131 -73.9586 North 275 316 8,400 -1,736 Descending Boston Center
Sun 12:12:11 AM 42.4903 -73.9633 357° North 276 318 6,600 -1,484 Descending Boston Center
Sun 12:12:43 AM 42.5175 -73.9583 North 282 325 6,100 -1,516 Descending Boston Center
Sun 12:13:42 AM 42.5986 -73.9631 358° North 269 310 4,300 -1,416 Descending Boston Center
Sun 12:14:12 AM 42.6383 -73.9586 North 260 299 4,000 -300 Descending Boston Center
Sun 12:14:42 AM 42.6694 -73.9564 North 264 304 4,000  Level Boston Center
Sun 12:15:13 AM 42.7069 -73.9572 359° North 238 274 4,000  Level Boston Center
Sun 12:16:19 AM 42.7758 -73.9506 North 208 239 4,000 -472 Level Boston Center
Sun 12:17:20 AM 42.8142 -73.8978 45° Northeast 207 238 3,000 -1,091 Descending Boston Center
Sun 12:18:20 AM 42.8297 -73.8303 73° East 179 206 1,800 -992 Descending Boston Center
Sun 12:19:21 AM 42.8006 -73.8097 153° Southeast 110 127 1,000 -639 Descending Boston Center
Sun 12:20:22 AM 42.7694 -73.8089 179° South 105 121 500 -492 Descending Boston Center
Sun 12:22:00 AM 42.7491 -73.8020 36° Northeast  Level Estimated
Sun 12:29:00 AM 42.7491 -73.8020 36° Northeast  Level Estimated
Sun 12:30:00 AM 42.7491 -73.8020 36° Northeast  Level Estimated

Login

Don't have an account? Register now (free) for customized features, flight alerts, and more!